createdAt,value
2023-04-09T00:00:16.468Z,27.60
2023-04-09T00:02:46.456Z,27.50
2023-04-09T00:05:16.338Z,27.60
2023-04-09T00:07:46.112Z,27.60
2023-04-09T00:10:15.969Z,27.60
2023-04-09T00:12:45.838Z,27.60
2023-04-09T00:15:24.362Z,27.60
2023-04-09T00:18:00.253Z,27.60
2023-04-09T00:20:30.123Z,27.60
2023-04-09T00:23:00.031Z,27.50
2023-04-09T00:25:30.654Z,27.50
2023-04-09T00:28:00.912Z,27.50
2023-04-09T00:30:34.306Z,27.50
2023-04-09T00:33:04.124Z,27.60
2023-04-09T00:35:34.052Z,27.60
2023-04-09T00:38:03.969Z,27.60
2023-04-09T00:40:34.025Z,27.60
2023-04-09T00:43:04.178Z,27.70
2023-04-09T00:45:34.115Z,27.70
2023-04-09T00:48:04.177Z,27.70
2023-04-09T00:50:34.100Z,27.70
2023-04-09T00:53:04.693Z,27.80
2023-04-09T00:55:35.112Z,27.80
2023-04-09T00:58:05.679Z,27.80
2023-04-09T01:00:35.628Z,27.80
2023-04-09T01:03:07.170Z,27.90
2023-04-09T01:06:00.953Z,28.00
2023-04-09T01:08:40.943Z,28.00
2023-04-09T01:11:49.951Z,28.00
2023-04-09T01:14:55.528Z,28.00
2023-04-09T01:17:36.710Z,28.10
2023-04-09T01:20:29.849Z,28.10
2023-04-09T01:23:22.393Z,28.20
2023-04-09T01:26:21.202Z,28.20
2023-04-09T01:28:58.436Z,28.30
2023-04-09T01:31:33.967Z,28.40
2023-04-09T01:34:04.538Z,28.40
2023-04-09T01:36:36.186Z,28.50
2023-04-09T01:39:07.194Z,28.50
2023-04-09T01:41:38.972Z,28.50
2023-04-09T01:44:10.179Z,28.50
2023-04-09T01:46:42.248Z,28.50
2023-04-09T01:49:13.133Z,28.50
2023-04-09T01:51:43.552Z,28.50
2023-04-09T01:54:14.114Z,28.60
2023-04-09T01:56:49.162Z,28.50
2023-04-09T01:59:19.463Z,28.50
2023-04-09T02:01:56.922Z,28.60
2023-04-09T02:04:35.886Z,28.60
2023-04-09T02:07:40.267Z,28.60
2023-04-09T02:10:13.733Z,28.60
2023-04-09T02:12:50.887Z,28.60
2023-04-09T02:15:23.716Z,28.60
2023-04-09T02:17:53.949Z,28.70
2023-04-09T02:20:23.802Z,28.70
2023-04-09T02:22:53.573Z,28.70
2023-04-09T02:25:24.969Z,28.70
2023-04-09T02:27:54.859Z,28.70
2023-04-09T02:30:24.886Z,28.80
2023-04-09T02:32:54.808Z,28.80
2023-04-09T02:35:24.654Z,28.80
2023-04-09T02:37:54.499Z,28.90
2023-04-09T02:40:24.551Z,29.00
2023-04-09T02:42:55.312Z,29.10
2023-04-09T02:45:25.175Z,29.20
2023-04-09T02:47:55.201Z,29.20
2023-04-09T02:50:25.162Z,29.20
2023-04-09T02:52:55.202Z,29.30
2023-04-09T02:55:25.470Z,29.30
2023-04-09T02:57:55.604Z,29.40
2023-04-09T03:00:25.898Z,29.50
2023-04-09T03:02:56.679Z,29.60
2023-04-09T03:05:26.886Z,29.70
2023-04-09T03:07:57.880Z,29.70
2023-04-09T03:10:27.736Z,29.70
2023-04-09T03:12:57.747Z,29.80
2023-04-09T03:15:27.720Z,29.90
2023-04-09T03:17:57.735Z,30.00
2023-04-09T03:20:27.706Z,30.10
2023-04-09T03:22:57.633Z,30.20
2023-04-09T03:25:27.601Z,30.20
2023-04-09T03:27:57.778Z,30.20
2023-04-09T03:30:27.801Z,30.20
2023-04-09T03:32:57.802Z,30.10
2023-04-09T03:35:28.011Z,30.10
2023-04-09T03:37:57.874Z,30.10
2023-04-09T03:40:27.896Z,30.10
2023-04-09T03:42:57.681Z,30.20
2023-04-09T03:45:27.613Z,30.30
2023-04-09T03:47:58.014Z,30.40
2023-04-09T03:50:28.171Z,30.40
2023-04-09T03:52:58.270Z,30.50
2023-04-09T03:55:28.887Z,30.50
2023-04-09T03:57:58.693Z,30.50
2023-04-09T04:00:28.858Z,30.60
2023-04-09T04:02:59.099Z,30.70
2023-04-09T04:05:29.180Z,30.70
2023-04-09T04:07:59.310Z,30.70
2023-04-09T04:10:29.240Z,30.70
2023-04-09T04:12:59.093Z,30.80
2023-04-09T04:15:28.934Z,30.80
2023-04-09T04:17:59.012Z,30.80
2023-04-09T04:20:28.894Z,30.90
2023-04-09T04:22:58.920Z,30.90
2023-04-09T04:25:28.798Z,31.00
2023-04-09T04:27:58.812Z,31.10
2023-04-09T04:30:28.720Z,31.20
2023-04-09T04:32:58.676Z,31.40
2023-04-09T04:35:28.783Z,31.40
2023-04-09T04:37:58.780Z,31.50
2023-04-09T04:40:28.793Z,31.50
2023-04-09T04:42:58.646Z,31.60
2023-04-09T04:45:28.539Z,31.60
2023-04-09T04:47:58.447Z,31.70
2023-04-09T04:50:28.443Z,31.70
2023-04-09T04:52:58.427Z,31.70
2023-04-09T04:55:28.457Z,31.70
2023-04-09T04:57:58.310Z,31.70
2023-04-09T05:00:28.331Z,31.80
2023-04-09T05:02:58.399Z,31.80
2023-04-09T05:05:28.464Z,31.80
2023-04-09T05:07:58.328Z,31.90
2023-04-09T05:10:28.292Z,31.90
2023-04-09T05:12:58.192Z,32.00
2023-04-09T05:15:28.338Z,32.00
2023-04-09T05:17:58.442Z,32.10
2023-04-09T05:20:30.255Z,32.10
2023-04-09T05:23:00.247Z,32.10
2023-04-09T05:25:30.194Z,32.20
2023-04-09T05:28:00.185Z,32.20
2023-04-09T05:30:29.970Z,32.30
2023-04-09T05:33:02.133Z,32.40
2023-04-09T05:35:32.473Z,32.50
2023-04-09T05:38:02.412Z,32.50
2023-04-09T05:40:32.517Z,32.50
2023-04-09T05:43:02.399Z,32.40
2023-04-09T05:45:32.186Z,32.40
2023-04-09T05:48:01.983Z,32.50
2023-04-09T05:50:38.064Z,32.60
2023-04-09T05:53:13.836Z,32.70
2023-04-09T05:55:43.759Z,32.70
2023-04-09T05:58:14.084Z,32.80
2023-04-09T06:00:46.536Z,32.80
2023-04-09T06:03:16.636Z,32.90
2023-04-09T06:05:48.539Z,33.00
2023-04-09T06:08:18.534Z,33.00
2023-04-09T06:10:48.643Z,33.10
2023-04-09T06:13:18.549Z,33.10
2023-04-09T06:15:48.702Z,33.10
2023-04-09T06:18:19.048Z,33.20
2023-04-09T06:20:48.771Z,33.10
2023-04-09T06:23:18.877Z,33.10
2023-04-09T06:25:48.707Z,33.10
2023-04-09T06:28:18.784Z,33.20
2023-04-09T06:30:48.970Z,33.20
2023-04-09T06:33:18.918Z,33.30
2023-04-09T06:35:49.099Z,33.40
2023-04-09T06:38:19.573Z,33.40
2023-04-09T06:40:49.541Z,33.50
2023-04-09T06:43:19.380Z,33.50
2023-04-09T06:45:49.320Z,33.50
2023-04-09T06:48:19.270Z,33.60
2023-04-09T06:50:49.157Z,33.60
2023-04-09T06:53:19.564Z,33.50
2023-04-09T06:55:49.503Z,33.60
2023-04-09T06:58:20.391Z,33.60
2023-04-09T07:00:50.302Z,33.60
2023-04-09T07:03:20.489Z,33.60
2023-04-09T07:05:50.447Z,33.70
2023-04-09T07:08:20.340Z,33.70
2023-04-09T07:10:50.179Z,33.80
2023-04-09T07:13:20.065Z,33.80
2023-04-09T07:15:49.956Z,33.90
2023-04-09T07:18:19.865Z,34.00
2023-04-09T07:20:49.866Z,34.10
2023-04-09T07:23:19.745Z,34.10
2023-04-09T07:25:50.103Z,34.20
2023-04-09T07:28:19.961Z,34.30
2023-04-09T07:30:49.815Z,34.40
2023-04-09T07:33:19.767Z,34.50
2023-04-09T07:35:49.807Z,34.50
2023-04-09T07:38:19.774Z,34.40
2023-04-09T07:40:50.218Z,34.40
2023-04-09T07:43:21.440Z,34.40
2023-04-09T07:45:53.501Z,34.40
2023-04-09T07:48:23.526Z,34.30
2023-04-09T07:50:53.424Z,34.30
2023-04-09T07:53:23.322Z,34.30
2023-04-09T07:55:55.992Z,34.30
2023-04-09T07:58:26.846Z,34.20
2023-04-09T08:00:56.768Z,34.10
2023-04-09T08:03:26.663Z,34.10
2023-04-09T08:05:56.551Z,34.00
2023-04-09T08:08:26.451Z,33.90
2023-04-09T08:10:56.496Z,33.90
2023-04-09T08:13:30.030Z,33.90
2023-04-09T08:16:02.549Z,33.80
2023-04-09T08:18:33.015Z,33.80
2023-04-09T08:21:07.882Z,33.90
2023-04-09T08:23:37.998Z,33.90
2023-04-09T08:26:07.893Z,33.80
2023-04-09T08:28:37.670Z,33.80
2023-04-09T08:31:08.002Z,33.80
2023-04-09T08:33:37.902Z,33.80
2023-04-09T08:36:13.171Z,33.80
2023-04-09T08:38:43.809Z,33.70
2023-04-09T08:41:21.561Z,33.70
2023-04-09T08:43:58.280Z,33.60
2023-04-09T08:46:29.495Z,33.60
2023-04-09T08:48:59.151Z,33.60
2023-04-09T08:51:30.589Z,33.60
2023-04-09T08:54:05.027Z,33.50
2023-04-09T08:56:35.413Z,33.50
2023-04-09T08:59:06.054Z,33.50
2023-04-09T09:01:36.086Z,33.50
2023-04-09T09:04:10.910Z,33.50
2023-04-09T09:06:42.807Z,33.50
2023-04-09T09:09:20.839Z,33.50
2023-04-09T09:11:54.868Z,33.50
2023-04-09T09:14:24.658Z,33.40
2023-04-09T09:17:10.246Z,33.40
2023-04-09T09:19:40.304Z,33.40
2023-04-09T09:22:10.561Z,33.40
2023-04-09T09:24:50.789Z,33.30
2023-04-09T09:27:42.207Z,33.40
2023-04-09T09:30:22.473Z,33.40
2023-04-09T09:33:10.130Z,33.30
2023-04-09T09:35:59.625Z,33.30
2023-04-09T09:38:29.580Z,33.20
2023-04-09T09:41:00.181Z,33.10
2023-04-09T09:43:46.416Z,32.90
2023-04-09T09:46:17.238Z,32.80
2023-04-09T09:48:48.350Z,32.60
2023-04-09T09:51:18.549Z,32.40
2023-04-09T09:53:50.215Z,32.20
2023-04-09T09:56:24.398Z,32.10
2023-04-09T09:59:26.567Z,32.00
2023-04-09T10:02:06.616Z,31.90
2023-04-09T10:04:38.614Z,31.90
2023-04-09T10:07:09.985Z,31.80
2023-04-09T10:09:48.472Z,31.70
2023-04-09T10:12:19.001Z,31.70
2023-04-09T10:14:50.033Z,31.60
2023-04-09T10:17:20.714Z,31.60
2023-04-09T10:19:59.306Z,31.60
2023-04-09T10:22:32.282Z,31.50
2023-04-09T10:25:02.647Z,31.50
2023-04-09T10:27:33.029Z,31.60
2023-04-09T10:30:03.747Z,31.50
2023-04-09T10:32:38.714Z,31.50
2023-04-09T10:35:11.500Z,31.50
2023-04-09T10:37:52.307Z,31.50
2023-04-09T10:40:23.543Z,31.50
2023-04-09T10:42:54.420Z,31.40
2023-04-09T10:45:24.227Z,31.40
2023-04-09T10:47:55.607Z,31.30
2023-04-09T10:50:31.058Z,31.20
2023-04-09T10:53:02.662Z,31.20
2023-04-09T10:55:42.697Z,31.10
2023-04-09T10:58:14.290Z,31.10
2023-04-09T11:00:46.754Z,31.10
2023-04-09T11:03:30.823Z,31.10
2023-04-09T11:06:13.000Z,31.10
2023-04-09T11:08:44.475Z,31.10
2023-04-09T11:11:15.101Z,31.10
2023-04-09T11:13:45.304Z,31.10
2023-04-09T11:16:24.816Z,31.10
2023-04-09T11:18:58.121Z,31.20
2023-04-09T11:21:31.151Z,31.20
2023-04-09T11:24:01.021Z,31.20
2023-04-09T11:26:38.702Z,31.10
2023-04-09T11:29:11.109Z,31.10
2023-04-09T11:31:41.028Z,31.10
2023-04-09T11:34:16.642Z,31.10
2023-04-09T11:36:50.688Z,31.00
2023-04-09T11:39:20.661Z,31.00
2023-04-09T11:41:50.673Z,31.00
2023-04-09T11:44:20.587Z,30.90
2023-04-09T11:46:52.304Z,30.80
2023-04-09T11:49:23.174Z,30.90
2023-04-09T11:51:53.365Z,30.80
2023-04-09T11:54:23.118Z,30.80
2023-04-09T11:56:57.797Z,30.80
2023-04-09T11:59:27.899Z,30.80
2023-04-09T12:02:00.898Z,30.70
2023-04-09T12:04:30.856Z,30.60
2023-04-09T12:07:00.846Z,30.60
2023-04-09T12:09:30.733Z,30.60
2023-04-09T12:12:03.903Z,30.50
2023-04-09T12:14:33.887Z,30.50
2023-04-09T12:17:03.701Z,30.50
2023-04-09T12:19:33.635Z,30.50
2023-04-09T12:22:03.394Z,30.50
2023-04-09T12:24:33.305Z,30.30
2023-04-09T12:27:03.437Z,30.30
2023-04-09T12:29:35.127Z,30.20
2023-04-09T12:32:04.982Z,30.20
2023-04-09T12:34:34.772Z,30.20
2023-04-09T12:37:04.636Z,30.10
2023-04-09T12:39:34.455Z,30.10
2023-04-09T12:42:04.457Z,30.00
2023-04-09T12:44:34.955Z,30.00
2023-04-09T12:47:04.797Z,30.00
2023-04-09T12:49:34.808Z,30.00
2023-04-09T12:52:04.790Z,30.00
2023-04-09T12:54:34.734Z,30.00
2023-04-09T12:57:04.594Z,30.00
2023-04-09T12:59:34.853Z,29.90
2023-04-09T13:02:05.832Z,29.90
2023-04-09T13:04:36.051Z,29.90
2023-04-09T13:07:05.971Z,29.90
2023-04-09T13:09:36.992Z,29.80
2023-04-09T13:12:07.131Z,29.70
2023-04-09T13:14:37.135Z,29.60
2023-04-09T13:17:07.006Z,29.60
2023-04-09T13:19:37.243Z,29.50
2023-04-09T13:22:09.780Z,29.50
2023-04-09T13:24:40.153Z,29.40
2023-04-09T13:27:13.364Z,29.40
2023-04-09T13:29:43.271Z,29.30
2023-04-09T13:32:13.332Z,29.20
2023-04-09T13:34:43.117Z,29.20
2023-04-09T13:37:12.911Z,29.10
2023-04-09T13:39:43.130Z,29.10
2023-04-09T13:42:14.154Z,29.00
2023-04-09T13:44:46.814Z,29.00
2023-04-09T13:47:18.095Z,28.90
2023-04-09T13:49:48.288Z,28.90
2023-04-09T13:52:18.243Z,28.90
2023-04-09T13:54:48.363Z,29.00
2023-04-09T13:57:18.831Z,29.00
2023-04-09T13:59:48.632Z,29.00
2023-04-09T14:02:19.859Z,29.00
2023-04-09T14:04:49.710Z,29.00
2023-04-09T14:07:19.754Z,29.00
2023-04-09T14:09:49.696Z,29.10
2023-04-09T14:12:19.817Z,29.00
2023-04-09T14:14:49.697Z,29.00
2023-04-09T14:17:19.541Z,29.00
2023-04-09T14:19:49.360Z,29.00
2023-04-09T14:22:19.206Z,29.00
2023-04-09T14:24:49.078Z,29.00
2023-04-09T14:27:19.057Z,29.00
2023-04-09T14:29:48.828Z,28.90
2023-04-09T14:32:18.719Z,28.90
2023-04-09T14:34:48.511Z,28.90
2023-04-09T14:37:18.251Z,28.90
2023-04-09T14:39:48.144Z,28.80
2023-04-09T14:42:17.911Z,28.80
2023-04-09T14:44:47.835Z,28.70
2023-04-09T14:47:17.815Z,28.70
2023-04-09T14:49:47.539Z,28.70
2023-04-09T14:52:17.536Z,28.70
2023-04-09T14:54:48.084Z,28.70
2023-04-09T14:57:18.089Z,28.60
2023-04-09T14:59:47.990Z,28.60
2023-04-09T15:02:18.273Z,28.60
2023-04-09T15:04:48.448Z,28.60
2023-04-09T15:07:18.460Z,28.60
2023-04-09T15:09:48.301Z,28.60
2023-04-09T15:12:18.103Z,28.50
2023-04-09T15:14:47.961Z,28.60
2023-04-09T15:17:17.888Z,28.50
2023-04-09T15:19:47.856Z,28.40
2023-04-09T15:22:18.062Z,28.40
2023-04-09T15:24:47.902Z,28.40
2023-04-09T15:27:17.836Z,28.40
2023-04-09T15:29:47.882Z,28.30
2023-04-09T15:32:17.580Z,28.30
2023-04-09T15:34:47.645Z,28.30
2023-04-09T15:37:17.791Z,28.30
2023-04-09T15:39:47.773Z,28.30
2023-04-09T15:42:22.101Z,28.30
2023-04-09T15:44:52.727Z,28.30
2023-04-09T15:47:22.615Z,28.20
2023-04-09T15:49:52.766Z,28.20
2023-04-09T15:52:22.748Z,28.10
2023-04-09T15:54:52.786Z,28.00
2023-04-09T15:57:23.863Z,28.00
2023-04-09T15:59:54.518Z,28.00
2023-04-09T16:02:25.976Z,28.00
2023-04-09T16:04:56.039Z,27.90
2023-04-09T16:07:25.988Z,27.90
2023-04-09T16:09:55.885Z,27.90
2023-04-09T16:12:26.536Z,27.80
2023-04-09T16:14:56.618Z,27.70
2023-04-09T16:17:27.163Z,27.70
2023-04-09T16:19:57.026Z,27.70
2023-04-09T16:22:27.088Z,27.60
2023-04-09T16:24:57.104Z,27.60
2023-04-09T16:27:27.210Z,27.60
2023-04-09T16:29:57.075Z,27.50
2023-04-09T16:32:27.337Z,27.60
2023-04-09T16:34:58.414Z,27.50
2023-04-09T16:37:29.193Z,27.50
2023-04-09T16:39:59.979Z,27.40
2023-04-09T16:42:32.058Z,27.40
2023-04-09T16:45:02.076Z,27.30
2023-04-09T16:47:32.734Z,27.30
2023-04-09T16:50:02.647Z,27.30
2023-04-09T16:52:32.466Z,27.40
2023-04-09T16:55:03.059Z,27.40
2023-04-09T16:57:32.915Z,27.40
2023-04-09T17:00:02.716Z,27.30
2023-04-09T17:02:33.606Z,27.30
2023-04-09T17:05:03.873Z,27.30
2023-04-09T17:07:34.104Z,27.20
2023-04-09T17:10:04.054Z,27.20
2023-04-09T17:12:34.440Z,27.20
2023-04-09T17:15:04.243Z,27.10
2023-04-09T17:17:35.452Z,27.10
2023-04-09T17:20:06.446Z,27.10
2023-04-09T17:22:37.010Z,27.00
2023-04-09T17:25:07.170Z,26.90
2023-04-09T17:27:37.375Z,26.80
2023-04-09T17:30:07.841Z,26.80
2023-04-09T17:32:37.742Z,26.80
2023-04-09T17:35:09.247Z,26.80
2023-04-09T17:37:40.384Z,26.70
2023-04-09T17:40:11.123Z,26.70
2023-04-09T17:42:41.522Z,26.60
2023-04-09T17:45:12.487Z,26.60
2023-04-09T17:47:42.603Z,26.60
2023-04-09T17:50:12.631Z,26.60
2023-04-09T17:52:42.610Z,26.60
2023-04-09T17:55:14.832Z,26.50
2023-04-09T17:57:44.780Z,26.50
2023-04-09T18:00:15.100Z,26.50
2023-04-09T18:02:46.937Z,26.50
2023-04-09T18:05:17.255Z,26.50
2023-04-09T18:07:47.684Z,26.50
2023-04-09T18:10:17.705Z,26.50
2023-04-09T18:12:47.612Z,26.60
2023-04-09T18:15:18.470Z,26.60
2023-04-09T18:17:48.633Z,26.60
2023-04-09T18:20:18.615Z,26.60
2023-04-09T18:22:48.487Z,26.60
2023-04-09T18:25:18.304Z,26.60
2023-04-09T18:27:48.151Z,26.60
2023-04-09T18:30:18.148Z,26.60
2023-04-09T18:32:50.047Z,26.70
2023-04-09T18:35:20.424Z,26.70
2023-04-09T18:37:50.318Z,26.70
2023-04-09T18:40:21.948Z,26.70
2023-04-09T18:42:56.654Z,26.70
2023-04-09T18:45:26.633Z,26.70
2023-04-09T18:47:56.453Z,26.60
2023-04-09T18:50:26.446Z,26.60
2023-04-09T18:52:56.159Z,26.60
2023-04-09T18:55:25.922Z,26.50
2023-04-09T18:57:56.095Z,26.40
2023-04-09T19:00:25.928Z,26.30
2023-04-09T19:02:56.781Z,26.30
2023-04-09T19:05:26.725Z,26.20
2023-04-09T19:08:04.682Z,26.20
2023-04-09T19:10:34.805Z,26.20
2023-04-09T19:13:05.010Z,26.20
2023-04-09T19:15:34.878Z,26.20
2023-04-09T19:18:04.726Z,26.20
2023-04-09T19:20:34.645Z,26.20
2023-04-09T19:23:04.541Z,26.20
2023-04-09T19:25:35.871Z,26.20
2023-04-09T19:28:05.792Z,26.20
2023-04-09T19:30:35.578Z,26.30
2023-04-09T19:33:05.392Z,26.30
2023-04-09T19:35:37.615Z,26.30
2023-04-09T19:38:07.529Z,26.30
2023-04-09T19:40:37.684Z,26.30
2023-04-09T19:43:07.739Z,26.20
2023-04-09T19:45:39.635Z,26.20
2023-04-09T19:48:10.123Z,26.20
2023-04-09T19:50:42.765Z,26.20
2023-04-09T19:53:12.699Z,26.20
2023-04-09T19:55:42.906Z,26.20
2023-04-09T19:58:12.774Z,26.20
2023-04-09T20:00:42.940Z,26.20
2023-04-09T20:03:13.765Z,26.20
2023-04-09T20:05:43.698Z,26.20
2023-04-09T20:08:15.934Z,26.20
2023-04-09T20:10:48.169Z,26.20
2023-04-09T20:13:17.997Z,26.10
2023-04-09T20:15:47.716Z,26.10
2023-04-09T20:18:17.397Z,26.00
2023-04-09T20:20:47.158Z,26.00
2023-04-09T20:23:17.305Z,25.90
2023-04-09T20:25:47.154Z,25.80
2023-04-09T20:28:16.956Z,25.80
2023-04-09T20:30:46.749Z,25.70
2023-04-09T20:33:16.453Z,25.70
2023-04-09T20:35:46.370Z,25.70
2023-04-09T20:38:16.274Z,25.70
2023-04-09T20:40:45.879Z,25.60
2023-04-09T20:43:15.947Z,25.70
2023-04-09T20:45:45.807Z,25.70
2023-04-09T20:48:16.673Z,25.70
2023-04-09T20:50:46.367Z,25.80
2023-04-09T20:53:16.373Z,25.80
2023-04-09T20:55:46.307Z,25.80
2023-04-09T20:58:16.262Z,25.80
2023-04-09T21:00:46.324Z,25.80
2023-04-09T21:03:17.748Z,25.80
2023-04-09T21:05:47.789Z,25.90
2023-04-09T21:08:18.004Z,25.90
2023-04-09T21:10:47.896Z,25.90
2023-04-09T21:13:17.805Z,25.90
2023-04-09T21:15:47.992Z,25.90
2023-04-09T21:18:21.616Z,25.90
2023-04-09T21:20:52.240Z,25.90
2023-04-09T21:23:22.214Z,25.90
2023-04-09T21:25:52.160Z,25.90
2023-04-09T21:28:22.046Z,25.90
2023-04-09T21:30:51.937Z,25.80
2023-04-09T21:33:21.859Z,25.80
2023-04-09T21:35:55.437Z,25.80
2023-04-09T21:38:25.270Z,25.80
2023-04-09T21:40:55.075Z,25.80
2023-04-09T21:43:25.215Z,25.70
2023-04-09T21:45:55.162Z,25.80
2023-04-09T21:48:25.223Z,25.80
2023-04-09T21:50:55.167Z,25.80
2023-04-09T21:53:25.056Z,25.80
2023-04-09T21:55:54.922Z,25.80
2023-04-09T21:58:24.738Z,25.70
2023-04-09T22:00:54.958Z,25.70
2023-04-09T22:03:27.739Z,25.70
2023-04-09T22:05:57.890Z,25.70
2023-04-09T22:08:27.878Z,25.70
2023-04-09T22:10:57.871Z,25.60
2023-04-09T22:13:27.619Z,25.60
2023-04-09T22:15:57.434Z,25.60
2023-04-09T22:18:27.557Z,25.60
2023-04-09T22:20:57.315Z,25.60
2023-04-09T22:23:27.017Z,25.60
2023-04-09T22:26:04.034Z,25.60
2023-04-09T22:28:33.882Z,25.50
2023-04-09T22:31:04.416Z,25.50
2023-04-09T22:33:34.297Z,25.40
2023-04-09T22:36:04.444Z,25.40
2023-04-09T22:38:34.378Z,25.50
2023-04-09T22:41:04.306Z,25.50
2023-04-09T22:43:34.103Z,25.50
2023-04-09T22:46:04.359Z,25.40
2023-04-09T22:48:44.065Z,25.40
2023-04-09T22:51:15.804Z,25.40
2023-04-09T22:53:45.770Z,25.40
2023-04-09T22:56:15.774Z,25.40
2023-04-09T22:58:45.901Z,25.40
2023-04-09T23:01:15.614Z,25.40
2023-04-09T23:03:46.477Z,25.40
2023-04-09T23:06:18.758Z,25.40
2023-04-09T23:08:48.839Z,25.40
2023-04-09T23:11:18.895Z,25.40
2023-04-09T23:13:48.709Z,25.30
2023-04-09T23:16:19.544Z,25.40
2023-04-09T23:18:49.463Z,25.30
2023-04-09T23:21:19.138Z,25.30
2023-04-09T23:23:49.057Z,25.30
2023-04-09T23:26:18.969Z,25.30
2023-04-09T23:28:48.864Z,25.30
2023-04-09T23:31:18.645Z,25.30
2023-04-09T23:33:48.485Z,25.20
2023-04-09T23:36:18.296Z,25.20
2023-04-09T23:38:49.149Z,25.20
2023-04-09T23:41:18.965Z,25.20
2023-04-09T23:43:48.908Z,25.20
2023-04-09T23:46:18.929Z,25.30
2023-04-09T23:48:48.972Z,25.30
2023-04-09T23:51:22.591Z,25.30
2023-04-09T23:53:52.755Z,25.40
2023-04-09T23:56:22.642Z,25.40
2023-04-09T23:58:52.619Z,25.40
